Time;durP1;ratioP1;P1;durP2;ratioP2;P2;SDS_P1;SDS_P2;PMS_P1;PMS_P2;Temp;Humidity;BMP_temperature;BMP_pressure;BME280_temperature;BME280_humidity;BME280_pressure;Samples;Min_cycle;Max_cycle;Signal;HPM_P1;HPM_P2
2021/04/29 00:01:22;;;;;;;10.38;7.18;;;11.40;56.30;;;;;;5069825;28;20480;-85
2021/04/29 00:03:48;;;;;;;10.65;7.03;;;11.40;57.00;;;;;;5049384;28;20125;-87
2021/04/29 00:06:13;;;;;;;10.35;7.25;;;11.40;56.80;;;;;;5052680;28;20025;-85
2021/04/29 00:08:39;;;;;;;8.45;6.10;;;11.30;56.90;;;;;;5047939;28;20107;-89
2021/04/29 00:11:06;;;;;;;9.75;6.95;;;11.30;57.10;;;;;;5048961;28;20028;-89
2021/04/29 00:13:32;;;;;;;10.05;6.70;;;11.20;57.30;;;;;;5053251;28;20055;-87
2021/04/29 00:15:57;;;;;;;10.73;7.63;;;11.10;57.30;;;;;;5065626;28;20052;-88
2021/04/29 00:18:24;;;;;;;13.88;7.53;;;11.10;57.60;;;;;;5054241;28;20099;-87
2021/04/29 00:20:55;;;;;;;9.65;6.15;;;11.10;57.60;;;;;;5059175;28;20044;-90
2021/04/29 00:23:21;;;;;;;7.53;5.30;;;11.10;57.60;;;;;;5075882;28;20119;-90
2021/04/29 00:25:47;;;;;;;9.23;5.25;;;11.10;57.40;;;;;;5074199;28;20048;-89
2021/04/29 00:28:12;;;;;;;8.90;5.38;;;11.20;57.20;;;;;;5084968;28;20110;-90
2021/04/29 00:30:38;;;;;;;7.55;5.75;;;11.20;57.00;;;;;;5079975;28;20020;-89
2021/04/29 00:33:04;;;;;;;7.60;5.53;;;11.20;57.00;;;;;;5087178;28;20024;-88
2021/04/29 00:35:29;;;;;;;7.65;5.28;;;11.20;56.90;;;;;;5084110;28;20035;-87
2021/04/29 00:37:55;;;;;;;8.52;5.80;;;11.20;57.50;;;;;;5088491;28;20483;-87
2021/04/29 00:40:20;;;;;;;6.15;4.43;;;11.20;56.90;;;;;;5092951;28;20020;-87
2021/04/29 00:42:46;;;;;;;8.48;4.97;;;11.20;56.90;;;;;;5088383;28;20047;-88
2021/04/29 00:45:12;;;;;;;8.88;5.57;;;11.20;57.00;;;;;;5084316;28;20017;-86
2021/04/29 00:47:39;;;;;;;7.88;5.80;;;11.10;57.20;;;;;;5085632;28;20016;-88
2021/04/29 00:50:10;;;;;;;8.60;5.88;;;11.10;57.40;;;;;;5090453;28;20099;-90
2021/04/29 00:52:36;;;;;;;11.15;6.45;;;11.20;57.60;;;;;;5083409;28;20484;-89
2021/04/29 00:55:02;;;;;;;8.73;6.05;;;11.10;57.60;;;;;;5080168;28;20131;-89
2021/04/29 00:57:28;;;;;;;7.82;5.65;;;11.10;57.70;;;;;;5088261;28;20020;-89
2021/04/29 00:59:54;;;;;;;8.95;5.95;;;11.00;57.90;;;;;;5083442;28;20490;-90
2021/04/29 01:02:23;;;;;;;9.18;5.97;;;10.90;58.10;;;;;;5085587;28;20024;-91
2021/04/29 01:05:06;;;;;;;7.68;5.65;;;10.90;58.20;;;;;;5090730;28;20173;-90
2021/04/29 01:07:57;;;;;;;6.97;5.03;;;10.90;58.10;;;;;;5076042;28;20556;-90
2021/04/29 01:10:28;;;;;;;8.77;5.70;;;10.90;58.20;;;;;;5074914;28;20077;-91
2021/04/29 01:13:02;;;;;;;8.93;6.20;;;10.80;58.30;;;;;;5074851;28;20077;-92
2021/04/29 01:15:28;;;;;;;9.50;6.50;;;10.80;58.80;;;;;;5076221;28;20468;-89
2021/04/29 01:17:55;;;;;;;8.50;6.03;;;10.70;58.90;;;;;;5076644;28;20032;-89
2021/04/29 01:20:48;;;;;;;8.18;5.75;;;10.60;58.90;;;;;;5080478;28;20055;-88
2021/04/29 01:23:22;;;;;;;9.38;7.10;;;10.60;59.00;;;;;;5086211;28;20017;-89
2021/04/29 01:25:51;;;;;;;9.25;6.25;;;10.50;59.60;;;;;;5059407;28;20017;-88
2021/04/29 01:28:17;;;;;;;9.00;6.45;;;10.40;59.70;;;;;;5081505;28;20020;-89
2021/04/29 01:30:43;;;;;;;8.65;6.00;;;10.40;60.30;;;;;;5084168;28;20096;-90
2021/04/29 01:33:09;;;;;;;9.05;6.22;;;10.30;60.50;;;;;;5086201;28;20530;-90
2021/04/29 01:35:36;;;;;;;8.45;6.20;;;10.40;60.30;;;;;;5085308;28;20024;-90
2021/04/29 01:38:01;;;;;;;10.50;5.82;;;10.40;60.30;;;;;;5076285;28;20012;-88
2021/04/29 01:40:27;;;;;;;7.60;5.70;;;10.40;60.20;;;;;;5085308;28;20481;-90
2021/04/29 01:42:53;;;;;;;8.57;5.97;;;10.50;60.20;;;;;;5078178;28;20492;-87
2021/04/29 01:45:19;;;;;;;7.80;5.78;;;10.50;60.00;;;;;;5077129;28;20020;-92
2021/04/29 01:47:44;;;;;;;9.27;5.93;;;10.60;60.10;;;;;;5078995;28;20022;-90
2021/04/29 01:50:12;;;;;;;8.07;5.00;;;10.60;60.00;;;;;;5075197;28;20095;-89
2021/04/29 01:52:38;;;;;;;7.90;5.30;;;10.60;59.90;;;;;;5078422;28;20031;-91
2021/04/29 01:55:04;;;;;;;8.55;6.05;;;10.70;60.00;;;;;;5086193;28;20020;-87
2021/04/29 01:57:31;;;;;;;8.52;5.40;;;10.70;59.90;;;;;;5089971;28;20016;-89
2021/04/29 01:59:57;;;;;;;8.45;5.78;;;10.70;60.00;;;;;;5089780;28;20048;-87
2021/04/29 02:02:26;;;;;;;7.35;5.63;;;10.70;60.00;;;;;;5079574;28;20467;-91
2021/04/29 02:04:52;;;;;;;8.88;6.28;;;10.70;60.30;;;;;;5082308;28;20070;-85
2021/04/29 02:07:18;;;;;;;8.82;6.28;;;10.60;60.40;;;;;;5082755;28;20021;-90
2021/04/29 02:09:44;;;;;;;8.55;6.40;;;10.70;60.60;;;;;;5086290;28;20111;-90
2021/04/29 02:12:10;;;;;;;9.05;6.75;;;10.60;60.80;;;;;;5087039;28;20073;-88
2021/04/29 02:14:58;;;;;;;7.10;5.13;;;10.60;60.90;;;;;;5083082;28;20020;-91
2021/04/29 02:17:42;;;;;;;10.35;6.70;;;10.70;60.80;;;;;;5091550;28;20056;-89
2021/04/29 02:20:09;;;;;;;13.95;8.57;;;10.70;61.40;;;;;;5072916;28;20016;-88
2021/04/29 02:22:38;;;;;;;12.93;8.95;;;10.60;61.80;;;;;;5054765;28;20106;-88
2021/04/29 02:25:05;;;;;;;15.65;10.75;;;10.60;62.80;;;;;;5072584;28;20017;-88
2021/04/29 02:27:33;;;;;;;15.02;10.73;;;10.40;64.70;;;;;;5047184;28;20154;-86
2021/04/29 02:29:59;;;;;;;12.30;9.65;;;10.20;66.70;;;;;;5073393;28;20025;-88
2021/04/29 02:32:25;;;;;;;12.95;9.90;;;10.00;67.50;;;;;;5047373;28;20017;-87
2021/04/29 02:34:51;;;;;;;14.25;10.43;;;9.80;68.40;;;;;;5056163;28;20020;-87
2021/04/29 02:37:17;;;;;;;13.30;9.18;;;9.70;68.50;;;;;;5051170;28;20033;-87
2021/04/29 02:39:43;;;;;;;14.27;9.68;;;9.70;68.70;;;;;;5061101;28;20037;-87
2021/04/29 02:42:11;;;;;;;16.95;10.52;;;9.70;69.50;;;;;;5066878;28;20047;-87
2021/04/29 02:44:36;;;;;;;14.00;10.27;;;9.60;69.90;;;;;;5048843;28;20021;-88
2021/04/29 02:47:02;;;;;;;15.50;11.50;;;9.60;71.20;;;;;;5045753;28;20070;-87
2021/04/29 02:49:28;;;;;;;17.75;11.05;;;9.50;72.70;;;;;;5056592;28;20096;-87
2021/04/29 02:51:54;;;;;;;14.50;10.48;;;9.40;73.40;;;;;;5073755;28;20028;-86
2021/04/29 02:54:20;;;;;;;15.18;11.15;;;9.30;74.00;;;;;;5055665;28;20020;-87
2021/04/29 02:56:46;;;;;;;16.27;10.40;;;9.20;74.60;;;;;;5042546;28;20024;-87
2021/04/29 02:59:12;;;;;;;13.80;9.63;;;9.30;74.90;;;;;;5073154;28;20060;-88
2021/04/29 03:01:38;;;;;;;15.35;10.35;;;9.30;75.10;;;;;;5049842;28;20014;-90
2021/04/29 03:04:04;;;;;;;13.05;9.80;;;9.30;75.20;;;;;;5040591;28;20499;-87
2021/04/29 03:06:30;;;;;;;13.13;9.35;;;9.40;75.20;;;;;;5063845;28;20025;-87
2021/04/29 03:08:56;;;;;;;13.60;9.05;;;9.50;74.20;;;;;;5045845;28;20034;-89
2021/04/29 03:11:22;;;;;;;13.15;9.30;;;9.60;74.00;;;;;;5071444;28;20096;-91
2021/04/29 03:13:48;;;;;;;13.23;8.98;;;9.60;73.80;;;;;;5050434;28;20025;-88
2021/04/29 03:16:13;;;;;;;13.48;9.10;;;9.70;73.70;;;;;;5071616;28;20154;-87
2021/04/29 03:18:39;;;;;;;14.13;9.82;;;9.70;73.40;;;;;;5054604;28;20392;-86
2021/04/29 03:21:05;;;;;;;13.70;10.65;;;9.70;74.40;;;;;;5066806;28;20049;-87
2021/04/29 03:23:31;;;;;;;15.23;11.07;;;9.60;75.80;;;;;;5087501;28;20026;-88
2021/04/29 03:25:56;;;;;;;14.88;11.00;;;9.60;76.90;;;;;;5077652;28;20033;-90
2021/04/29 03:28:22;;;;;;;12.98;9.45;;;9.50;77.70;;;;;;5083189;28;20016;-88
2021/04/29 03:30:48;;;;;;;13.27;10.30;;;9.50;77.60;;;;;;5084686;28;20020;-88
2021/04/29 03:33:13;;;;;;;13.73;10.13;;;9.50;77.80;;;;;;5085204;28;20028;-88
2021/04/29 03:35:39;;;;;;;13.15;10.20;;;9.60;78.10;;;;;;5085929;28;20056;-88
2021/04/29 03:38:05;;;;;;;14.65;10.10;;;9.60;78.20;;;;;;5092345;28;20012;-88
2021/04/29 03:40:31;;;;;;;11.90;8.77;;;9.60;78.10;;;;;;5085288;28;20468;-87
2021/04/29 03:42:57;;;;;;;14.25;9.30;;;9.70;77.80;;;;;;5086504;28;20082;-86
2021/04/29 03:45:23;;;;;;;16.90;11.30;;;9.80;78.10;;;;;;5081397;28;20532;-86
2021/04/29 03:47:49;;;;;;;15.30;10.57;;;9.70;80.80;;;;;;5079751;28;20027;-90
2021/04/29 03:50:15;;;;;;;16.05;11.15;;;9.50;81.90;;;;;;5086857;28;20012;-87
2021/04/29 03:52:40;;;;;;;14.85;11.23;;;9.30;84.30;;;;;;5087981;28;20024;-88
2021/04/29 03:55:07;;;;;;;13.40;9.88;;;9.20;86.50;;;;;;5081501;28;20024;-85
2021/04/29 03:57:33;;;;;;;18.05;13.95;;;9.20;87.00;;;;;;5087937;28;20057;-84
2021/04/29 03:59:58;;;;;;;15.93;11.75;;;9.10;89.70;;;;;;5079242;28;20013;-87
2021/04/29 04:02:24;;;;;;;17.77;13.40;;;9.00;89.90;;;;;;5088564;28;20020;-86
2021/04/29 04:04:49;;;;;;;15.98;11.95;;;9.10;90.90;;;;;;5084306;28;20016;-86
2021/04/29 04:07:16;;;;;;;12.82;10.07;;;9.00;90.50;;;;;;5092802;28;20073;-84
2021/04/29 04:09:42;;;;;;;20.80;11.75;;;9.10;90.20;;;;;;5090545;28;20464;-85
2021/04/29 04:12:08;;;;;;;16.02;12.32;;;9.10;90.40;;;;;;5087302;28;20078;-83
2021/04/29 04:14:33;;;;;;;18.73;14.90;;;9.10;90.60;;;;;;5090011;28;20016;-85
2021/04/29 04:16:59;;;;;;;20.38;14.63;;;9.00;91.30;;;;;;5088819;28;20440;-86
2021/04/29 04:19:24;;;;;;;20.60;15.02;;;8.90;92.30;;;;;;5090409;28;20536;-85
2021/04/29 04:21:50;;;;;;;22.95;15.15;;;8.80;92.80;;;;;;5090601;28;20535;-86
2021/04/29 04:24:15;;;;;;;21.55;14.15;;;8.80;93.20;;;;;;5088256;28;20151;-85
2021/04/29 04:26:41;;;;;;;19.65;15.45;;;8.80;93.60;;;;;;5089057;28;20047;-84
2021/04/29 04:29:06;;;;;;;22.13;15.05;;;8.70;93.90;;;;;;5085290;28;20043;-87
2021/04/29 04:31:32;;;;;;;19.58;14.68;;;8.70;94.20;;;;;;5087033;28;20042;-86
2021/04/29 04:33:57;;;;;;;21.95;16.55;;;8.70;94.40;;;;;;5089528;28;20012;-85
2021/04/29 04:36:23;;;;;;;23.33;16.02;;;8.80;94.60;;;;;;5089970;28;20065;-84
2021/04/29 04:38:49;;;;;;;17.90;15.57;;;8.70;94.90;;;;;;5090949;28;20462;-87
2021/04/29 04:41:14;;;;;;;19.95;15.05;;;8.70;95.20;;;;;;5088368;28;20065;-86
2021/04/29 04:43:40;;;;;;;23.95;15.75;;;8.70;95.40;;;;;;5086220;28;20028;-86
2021/04/29 04:46:05;;;;;;;19.40;15.77;;;8.70;95.40;;;;;;5086461;28;20031;-85
2021/04/29 04:48:31;;;;;;;21.02;15.60;;;8.70;95.60;;;;;;5089606;28;20149;-86
2021/04/29 04:50:57;;;;;;;21.65;16.48;;;8.80;95.50;;;;;;5081920;28;20035;-87
2021/04/29 04:53:23;;;;;;;23.20;15.95;;;8.70;95.50;;;;;;5083582;28;20020;-87
2021/04/29 04:55:50;;;;;;;23.30;16.10;;;8.70;95.50;;;;;;5079947;28;20016;-87
2021/04/29 04:58:16;;;;;;;16.58;13.95;;;8.80;95.70;;;;;;5080637;28;20022;-86
2021/04/29 05:00:42;;;;;;;18.63;14.07;;;8.80;95.40;;;;;;5084093;28;20479;-88
2021/04/29 05:03:08;;;;;;;16.15;12.57;;;8.90;95.20;;;;;;5088203;28;20023;-87
2021/04/29 05:05:34;;;;;;;17.45;12.93;;;8.90;95.10;;;;;;5084660;28;20384;-87
2021/04/29 05:08:01;;;;;;;16.92;13.55;;;9.00;94.50;;;;;;5083468;28;20024;-86
2021/04/29 05:10:28;;;;;;;19.25;14.18;;;9.10;94.30;;;;;;5086856;28;20021;-90
2021/04/29 05:12:54;;;;;;;16.90;12.77;;;9.20;94.00;;;;;;5089867;28;20020;-87
2021/04/29 05:15:20;;;;;;;16.38;12.60;;;9.30;93.80;;;;;;5082122;28;20475;-89
2021/04/29 05:17:46;;;;;;;16.05;13.15;;;9.40;93.50;;;;;;5084794;28;20111;-86
2021/04/29 05:20:11;;;;;;;15.20;12.07;;;9.40;93.40;;;;;;5087984;28;20012;-87
2021/04/29 05:22:37;;;;;;;16.60;13.18;;;9.50;93.30;;;;;;5090890;28;20044;-87
2021/04/29 05:25:03;;;;;;;17.98;13.32;;;9.50;93.10;;;;;;5080403;28;20020;-88
2021/04/29 05:27:28;;;;;;;16.48;13.18;;;9.60;93.20;;;;;;5075139;28;20044;-86
2021/04/29 05:29:54;;;;;;;19.10;16.02;;;9.60;93.10;;;;;;5084919;28;20016;-87
2021/04/29 05:32:20;;;;;;;16.17;12.73;;;9.60;93.30;;;;;;5086380;28;20260;-89
2021/04/29 05:34:46;;;;;;;18.50;13.95;;;9.70;93.50;;;;;;5078077;28;20050;-87
2021/04/29 05:37:11;;;;;;;18.48;14.15;;;9.70;93.20;;;;;;5083377;28;20074;-88
2021/04/29 05:39:37;;;;;;;17.25;13.65;;;9.70;93.10;;;;;;5088334;28;20023;-87
2021/04/29 05:42:03;;;;;;;15.15;11.90;;;9.70;93.10;;;;;;5082731;28;20020;-88
2021/04/29 05:44:29;;;;;;;12.75;10.55;;;9.70;93.00;;;;;;5080909;28;20016;-87
2021/04/29 05:46:54;;;;;;;20.45;15.27;;;9.70;92.90;;;;;;5086996;28;20388;-87
2021/04/29 05:49:20;;;;;;;17.05;13.18;;;9.70;93.10;;;;;;5087865;28;20365;-87
2021/04/29 05:51:45;;;;;;;16.02;12.80;;;9.70;93.00;;;;;;5094048;28;20016;-87
2021/04/29 05:54:11;;;;;;;16.95;12.50;;;9.70;93.00;;;;;;5081938;28;20013;-89
2021/04/29 05:56:36;;;;;;;15.38;12.13;;;9.70;93.00;;;;;;5082353;28;20085;-85
2021/04/29 05:59:03;;;;;;;17.23;12.43;;;9.80;92.90;;;;;;5087222;28;20186;-87
2021/04/29 06:01:29;;;;;;;17.23;14.25;;;9.80;92.90;;;;;;5093745;28;20020;-86
2021/04/29 06:03:54;;;;;;;17.80;12.75;;;9.90;92.90;;;;;;5056176;28;20526;-87
2021/04/29 06:06:20;;;;;;;15.82;12.50;;;9.90;92.90;;;;;;5055799;28;20452;-87
2021/04/29 06:08:45;;;;;;;17.40;12.65;;;10.00;93.00;;;;;;5054220;28;20025;-84
2021/04/29 06:11:11;;;;;;;23.10;14.75;;;10.00;92.90;;;;;;5071381;28;20392;-87
2021/04/29 06:13:36;;;;;;;18.08;13.15;;;10.10;93.20;;;;;;5071356;28;20033;-88
2021/04/29 06:16:02;;;;;;;18.08;14.80;;;10.10;93.10;;;;;;5064270;28;20028;-85
2021/04/29 06:18:28;;;;;;;15.07;11.57;;;10.20;93.50;;;;;;5075625;28;20024;-85
2021/04/29 06:20:54;;;;;;;18.33;13.73;;;10.20;93.10;;;;;;5073252;28;20024;-88
2021/04/29 06:23:19;;;;;;;19.75;15.80;;;10.30;93.30;;;;;;5038042;28;20032;-85
2021/04/29 06:25:45;;;;;;;22.33;16.25;;;10.20;93.80;;;;;;5037926;28;20047;-88
2021/04/29 06:28:10;;;;;;;22.58;17.60;;;10.20;94.40;;;;;;5055811;28;20534;-84
2021/04/29 06:30:38;;;;;;;24.23;17.13;;;10.20;94.80;;;;;;5037976;28;20059;-87
2021/04/29 06:33:04;;;;;;;20.73;17.13;;;10.20;95.30;;;;;;5037954;28;20039;-85
2021/04/29 06:35:29;;;;;;;23.65;17.92;;;10.20;95.60;;;;;;5037528;28;20116;-85
2021/04/29 06:37:55;;;;;;;22.55;17.42;;;10.20;95.90;;;;;;5034671;28;20028;-85
2021/04/29 06:40:20;;;;;;;24.90;18.35;;;10.20;96.20;;;;;;5037587;28;20082;-85
2021/04/29 06:42:46;;;;;;;19.70;17.58;;;10.20;96.50;;;;;;5037512;28;20049;-85
2021/04/29 06:45:12;;;;;;;23.15;17.63;;;10.30;96.60;;;;;;5025254;28;20055;-84
2021/04/29 06:47:37;;;;;;;22.40;16.92;;;10.30;96.90;;;;;;5018234;28;20029;-84
2021/04/29 06:50:03;;;;;;;24.63;17.95;;;10.40;96.90;;;;;;5017422;28;20030;-84
2021/04/29 06:52:29;;;;;;;22.73;17.80;;;10.40;97.10;;;;;;5035185;28;20026;-85
2021/04/29 06:54:54;;;;;;;23.58;18.80;;;10.40;97.10;;;;;;5034999;28;20029;-84
2021/04/29 06:57:20;;;;;;;25.23;19.48;;;10.40;97.20;;;;;;5017179;28;20029;-84
2021/04/29 06:59:45;;;;;;;18.67;14.93;;;10.40;97.20;;;;;;5033801;28;20515;-83
2021/04/29 07:02:11;;;;;;;21.75;16.38;;;10.50;97.00;;;;;;5017194;28;20576;-84
2021/04/29 07:04:37;;;;;;;24.48;18.42;;;10.60;97.00;;;;;;5017010;28;20107;-84
2021/04/29 07:07:02;;;;;;;19.88;16.52;;;10.60;97.00;;;;;;5021067;28;20018;-84
2021/04/29 07:09:28;;;;;;;22.88;17.88;;;10.60;96.80;;;;;;5004897;28;20025;-84
2021/04/29 07:11:54;;;;;;;20.55;16.30;;;10.60;96.90;;;;;;5016965;28;20018;-84
2021/04/29 07:14:20;;;;;;;22.40;18.27;;;10.60;96.90;;;;;;5034693;28;20100;-84
2021/04/29 07:16:46;;;;;;;22.23;17.58;;;10.60;97.10;;;;;;5031013;28;20025;-85
2021/04/29 07:19:12;;;;;;;22.55;18.02;;;10.60;97.20;;;;;;5036610;28;20028;-84
2021/04/29 07:21:38;;;;;;;21.23;17.70;;;10.60;97.40;;;;;;5049727;28;20094;-85
2021/04/29 07:24:04;;;;;;;21.05;16.65;;;10.60;97.50;;;;;;5074723;28;20021;-85
2021/04/29 07:26:29;;;;;;;20.23;17.15;;;10.60;97.30;;;;;;5073112;28;20075;-85
2021/04/29 07:28:55;;;;;;;22.45;17.60;;;10.60;97.20;;;;;;5072036;28;20026;-85
2021/04/29 07:31:20;;;;;;;21.30;18.23;;;10.60;97.20;;;;;;5062246;28;20500;-85
2021/04/29 07:33:46;;;;;;;23.50;18.52;;;10.50;97.30;;;;;;5062221;28;20030;-84
2021/04/29 07:36:12;;;;;;;25.95;20.00;;;10.50;97.40;;;;;;5069292;28;20024;-85
2021/04/29 07:38:38;;;;;;;24.45;19.33;;;10.50;97.60;;;;;;5072850;28;20020;-85
2021/04/29 07:41:04;;;;;;;20.40;15.85;;;10.40;97.80;;;;;;5072923;28;20438;-83
2021/04/29 07:43:30;;;;;;;17.35;15.23;;;10.40;97.70;;;;;;5072892;28;20024;-82
2021/04/29 07:45:55;;;;;;;27.75;19.60;;;10.50;97.40;;;;;;5060069;28;20130;-83
2021/04/29 07:48:21;;;;;;;19.63;15.38;;;10.50;97.40;;;;;;5054118;28;20492;-81
2021/04/29 07:50:47;;;;;;;19.20;13.93;;;10.50;97.30;;;;;;5052439;28;20481;-82
2021/04/29 07:53:12;;;;;;;18.40;15.05;;;10.50;97.10;;;;;;5052796;28;20036;-82
2021/04/29 07:55:38;;;;;;;19.30;14.60;;;10.60;97.00;;;;;;5052521;28;20477;-83
2021/04/29 07:58:04;;;;;;;19.40;16.38;;;10.70;96.80;;;;;;5055597;28;20541;-85
2021/04/29 08:00:29;;;;;;;20.10;15.90;;;10.70;96.70;;;;;;5063344;28;20025;-84
2021/04/29 08:02:55;;;;;;;16.73;13.95;;;10.70;96.60;;;;;;5075146;28;20072;-83
2021/04/29 08:05:21;;;;;;;14.27;12.75;;;10.80;96.50;;;;;;5076297;28;20016;-83
2021/04/29 08:07:46;;;;;;;16.25;12.95;;;10.80;96.30;;;;;;5074153;28;20028;-84
2021/04/29 08:10:14;;;;;;;18.40;12.50;;;10.80;96.10;;;;;;5073498;28;20031;-84
2021/04/29 08:12:39;;;;;;;14.27;11.68;;;10.80;96.00;;;;;;5072971;28;20021;-84
2021/04/29 08:15:06;;;;;;;14.88;12.15;;;10.90;95.90;;;;;;5071587;28;20021;-84
2021/04/29 08:17:32;;;;;;;15.35;13.23;;;10.90;95.70;;;;;;5052127;28;20091;-83
2021/04/29 08:19:57;;;;;;;14.90;12.55;;;10.90;95.60;;;;;;5052250;28;20469;-83
2021/04/29 08:22:25;;;;;;;16.42;13.23;;;10.90;95.50;;;;;;5051582;28;20045;-83
2021/04/29 08:24:51;;;;;;;19.35;14.50;;;10.80;95.40;;;;;;5051795;28;20377;-84
2021/04/29 08:27:17;;;;;;;16.02;12.68;;;10.80;95.50;;;;;;5056923;28;20389;-84
2021/04/29 08:29:43;;;;;;;17.13;13.25;;;10.70;95.40;;;;;;5062431;28;20021;-83
2021/04/29 08:32:08;;;;;;;18.38;14.80;;;10.70;95.50;;;;;;5062296;28;20021;-83
2021/04/29 08:34:34;;;;;;;17.73;14.35;;;10.60;95.60;;;;;;5035837;28;20115;-83
2021/04/29 08:37:00;;;;;;;16.67;13.57;;;10.50;95.70;;;;;;5056146;28;20461;-84
2021/04/29 08:39:26;;;;;;;16.23;14.05;;;10.50;95.70;;;;;;5062123;28;20016;-84
2021/04/29 08:41:51;;;;;;;17.73;12.40;;;10.60;95.70;;;;;;5061318;28;20075;-85
2021/04/29 08:44:17;;;;;;;17.10;13.57;;;10.60;95.60;;;;;;5060518;28;20060;-84
2021/04/29 08:46:43;;;;;;;14.73;12.43;;;10.60;95.50;;;;;;5061359;28;20086;-83
2021/04/29 08:49:09;;;;;;;20.05;14.95;;;10.70;95.40;;;;;;5027256;28;20480;-83
2021/04/29 08:51:37;;;;;;;15.90;13.75;;;10.70;95.40;;;;;;5033935;28;20686;-84
2021/04/29 08:54:03;;;;;;;18.25;14.85;;;10.70;95.40;;;;;;5058312;28;20032;-84
2021/04/29 08:56:28;;;;;;;19.27;14.13;;;10.70;95.50;;;;;;5061621;28;20020;-84
2021/04/29 08:58:57;;;;;;;23.05;16.58;;;10.70;95.50;;;;;;5062737;28;20042;-83
2021/04/29 09:01:23;;;;;;;22.48;15.55;;;10.60;95.90;;;;;;5059980;28;20028;-83
2021/04/29 09:03:49;;;;;;;22.20;17.17;;;10.50;96.10;;;;;;5060086;28;20024;-81
2021/04/29 09:06:16;;;;;;;22.02;18.63;;;10.40;96.50;;;;;;5054157;28;20365;-82
2021/04/29 09:08:42;;;;;;;26.48;19.77;;;10.40;96.70;;;;;;5051088;28;20025;-82
2021/04/29 09:11:16;;;;;;;25.27;19.50;;;10.30;97.00;;;;;;5063178;28;20430;-82
2021/04/29 09:13:54;;;;;;;25.25;19.85;;;10.30;97.30;;;;;;5060338;28;20036;-82
2021/04/29 09:16:21;;;;;;;22.48;18.88;;;10.20;97.80;;;;;;5062818;28;20031;-83
2021/04/29 09:18:48;;;;;;;21.48;18.08;;;10.20;98.40;;;;;;5061799;28;20021;-83
2021/04/29 09:21:14;;;;;;;23.25;18.20;;;10.40;98.50;;;;;;5050713;28;20037;-82
2021/04/29 09:23:48;;;;;;;23.52;19.02;;;10.50;98.30;;;;;;5052764;28;20021;-83
2021/04/29 09:26:23;;;;;;;24.70;18.40;;;10.60;98.30;;;;;;5055427;28;20029;-83
2021/04/29 09:28:54;;;;;;;19.73;17.23;;;10.60;98.10;;;;;;5055338;28;20083;-82
2021/04/29 09:31:24;;;;;;;20.63;16.50;;;10.60;97.90;;;;;;5055367;28;20421;-83
2021/04/29 09:33:56;;;;;;;25.77;17.17;;;10.50;97.60;;;;;;5055331;28;20124;-84
2021/04/29 09:36:23;;;;;;;19.90;16.10;;;10.40;97.50;;;;;;5055351;28;20032;-83
2021/04/29 09:38:57;;;;;;;23.58;16.88;;;10.30;97.90;;;;;;5054953;28;20056;-84
2021/04/29 09:41:26;;;;;;;20.00;16.08;;;10.20;98.00;;;;;;5055534;28;20021;-83
2021/04/29 09:43:57;;;;;;;20.25;16.95;;;10.20;98.20;;;;;;5056394;28;20457;-82
2021/04/29 09:46:23;;;;;;;20.75;16.70;;;10.10;98.20;;;;;;5055103;28;20124;-83
2021/04/29 09:48:50;;;;;;;26.08;17.38;;;10.10;98.30;;;;;;5055006;28;20074;-82
2021/04/29 09:51:18;;;;;;;23.33;17.33;;;10.10;98.30;;;;;;5054920;28;20389;-83
2021/04/29 09:53:50;;;;;;;21.65;16.80;;;10.10;98.20;;;;;;5054936;28;20029;-83
2021/04/29 09:56:16;;;;;;;20.90;15.80;;;10.20;98.10;;;;;;5056172;28;20036;-83
2021/04/29 09:58:55;;;;;;;21.40;17.00;;;10.10;98.10;;;;;;5057241;28;20070;-83
2021/04/29 10:01:25;;;;;;;20.15;16.42;;;10.20;98.10;;;;;;5065209;28;20021;-81
2021/04/29 10:03:50;;;;;;;22.52;15.85;;;10.10;97.90;;;;;;5058046;28;20116;-83
2021/04/29 10:06:17;;;;;;;21.60;16.48;;;10.00;97.90;;;;;;5057305;28;20104;-84
2021/04/29 10:08:43;;;;;;;23.23;16.35;;;10.00;98.10;;;;;;5064846;28;20053;-83
2021/04/29 10:11:10;;;;;;;21.02;17.00;;;10.10;98.20;;;;;;5057184;28;20025;-82
2021/04/29 10:13:42;;;;;;;20.10;15.68;;;10.20;98.20;;;;;;5057269;28;20505;-83
2021/04/29 10:16:08;;;;;;;20.10;15.57;;;10.20;98.20;;;;;;5065668;28;20077;-83
2021/04/29 10:18:33;;;;;;;24.83;18.50;;;10.30;98.20;;;;;;5062224;28;20100;-83
2021/04/29 10:21:01;;;;;;;23.90;17.30;;;10.20;98.10;;;;;;5063474;28;20075;-82
2021/04/29 10:23:27;;;;;;;24.25;17.42;;;10.20;98.40;;;;;;5056342;28;20025;-82
2021/04/29 10:25:54;;;;;;;23.73;18.05;;;10.10;98.60;;;;;;5056380;28;20404;-82
2021/04/29 10:28:43;;;;;;;21.65;17.75;;;10.00;98.90;;;;;;5054326;28;20124;-82
2021/04/29 10:31:25;;;;;;;25.60;18.85;;;10.00;99.40;;;;;;5049438;28;20564;-82
2021/04/29 10:34:03;;;;;;;25.52;19.77;;;9.90;99.90;;;;;;5054154;28;20563;-81
2021/04/29 10:36:46;;;;;;;24.02;18.23;;;9.80;99.90;;;;;;5055909;28;20028;-82
2021/04/29 10:39:23;;;;;;;28.35;20.23;;;9.60;99.90;;;;;;5056144;28;20466;-81
2021/04/29 10:42:02;;;;;;;24.85;19.02;;;9.50;99.90;;;;;;5073635;28;20032;-81
2021/04/29 10:44:43;;;;;;;25.05;19.95;;;9.30;99.90;;;;;;5074373;28;20074;-82
2021/04/29 10:47:09;;;;;;;27.38;19.35;;;9.20;99.90;;;;;;5074461;28;20024;-82
2021/04/29 10:49:41;;;;;;;26.67;20.30;;;9.00;99.90;;;;;;5056033;28;20036;-82
2021/04/29 10:52:07;;;;;;;27.58;20.35;;;8.90;99.90;;;;;;5074109;28;20035;-82
2021/04/29 10:54:32;;;;;;;26.13;20.45;;;8.70;99.90;;;;;;5055365;28;20024;-81
2021/04/29 10:57:13;;;;;;;26.90;20.95;;;8.70;99.90;;;;;;5043213;28;20039;-82
2021/04/29 10:59:44;;;;;;;29.15;21.00;;;8.60;99.90;;;;;;5055541;28;20040;-81
2021/04/29 11:02:36;;;;;;;32.15;22.05;;;8.50;99.90;;;;;;5041492;28;20023;-81
2021/04/29 11:05:05;;;;;;;29.75;22.15;;;8.50;99.90;;;;;;5055386;28;20095;-81
2021/04/29 11:07:31;;;;;;;26.88;21.65;;;8.50;99.90;;;;;;5055153;28;20027;-80
2021/04/29 11:10:07;;;;;;;30.13;22.55;;;8.40;99.90;;;;;;5041305;28;20404;-80
2021/04/29 11:12:59;;;;;;;30.10;23.33;;;8.40;99.90;;;;;;5053479;28;20100;-81
2021/04/29 11:15:42;;;;;;;31.48;22.50;;;8.30;99.90;;;;;;5047106;28;20032;-81
2021/04/29 11:18:15;;;;;;;30.15;22.33;;;8.20;99.90;;;;;;5055257;28;20564;-80
2021/04/29 11:20:50;;;;;;;30.38;22.48;;;8.10;99.90;;;;;;5052087;28;574644;-80
2021/04/29 11:23:25;;;;;;;31.48;22.73;;;8.00;99.90;;;;;;5036280;28;20435;-80
2021/04/29 11:25:51;;;;;;;29.38;23.50;;;7.90;99.90;;;;;;5039829;28;20063;-80
2021/04/29 11:28:16;;;;;;;31.85;23.48;;;7.80;99.90;;;;;;5046003;28;20060;-80
2021/04/29 11:30:43;;;;;;;28.48;22.35;;;7.70;99.90;;;;;;5035886;28;20025;-80
2021/04/29 11:33:12;;;;;;;30.45;21.90;;;7.60;99.90;;;;;;5036245;28;20071;-81
2021/04/29 11:35:39;;;;;;;31.40;23.17;;;7.50;99.90;;;;;;5035551;28;20056;-81
2021/04/29 11:38:07;;;;;;;29.00;22.70;;;7.50;99.90;;;;;;5036020;28;20029;-81
2021/04/29 11:40:34;;;;;;;32.28;23.63;;;7.40;99.90;;;;;;5032514;28;20389;-80
2021/04/29 11:43:01;;;;;;;35.20;25.38;;;7.50;99.90;;;;;;5014566;28;20551;-81
2021/04/29 11:45:41;;;;;;;34.80;24.90;;;7.40;99.90;;;;;;5029185;28;20052;-80
2021/04/29 11:48:11;;;;;;;31.90;23.67;;;7.40;99.90;;;;;;5034303;28;20021;-80
2021/04/29 11:50:50;;;;;;;32.03;23.27;;;7.40;99.90;;;;;;5052727;28;20029;-80
2021/04/29 11:53:24;;;;;;;31.27;23.20;;;7.30;99.90;;;;;;5033143;28;20021;-81
2021/04/29 11:55:56;;;;;;;33.35;23.20;;;7.20;99.90;;;;;;5035053;28;20033;-80
2021/04/29 11:58:22;;;;;;;33.03;24.27;;;7.20;99.90;;;;;;5020161;28;20025;-80
2021/04/29 12:00:50;;;;;;;32.33;24.25;;;7.10;99.90;;;;;;5045781;28;20548;-82
2021/04/29 12:03:16;;;;;;;30.90;22.92;;;7.10;99.90;;;;;;5037807;28;20017;-80
2021/04/29 12:05:47;;;;;;;31.98;24.88;;;7.00;99.90;;;;;;5026279;28;20017;-80
2021/04/29 12:08:24;;;;;;;30.10;22.88;;;7.00;99.90;;;;;;5034953;28;20021;-80
2021/04/29 12:10:58;;;;;;;28.10;22.90;;;7.00;99.90;;;;;;5052465;28;20024;-81
2021/04/29 12:13:28;;;;;;;28.65;21.20;;;6.90;99.90;;;;;;5034852;28;20071;-82
2021/04/29 12:15:56;;;;;;;25.67;21.17;;;6.90;99.90;;;;;;5052979;28;20029;-81
2021/04/29 12:18:22;;;;;;;27.95;20.73;;;6.90;99.90;;;;;;5046066;28;20021;-80
2021/04/29 12:20:48;;;;;;;25.45;19.85;;;6.90;99.90;;;;;;5050892;28;20039;-80
2021/04/29 12:23:14;;;;;;;27.02;19.33;;;6.90;99.90;;;;;;5070411;28;20024;-80
2021/04/29 12:25:40;;;;;;;22.67;16.98;;;6.90;99.90;;;;;;5051956;28;20507;-79
2021/04/29 12:28:18;;;;;;;18.15;15.80;;;6.90;99.90;;;;;;5052965;28;20024;-79
2021/04/29 12:30:44;;;;;;;19.25;15.30;;;6.90;99.90;;;;;;5063678;28;20572;-80
2021/04/29 12:33:21;;;;;;;18.67;14.77;;;6.90;99.90;;;;;;5064241;28;20039;-80
2021/04/29 12:35:48;;;;;;;16.98;13.63;;;7.00;99.90;;;;;;5059368;28;20036;-79
2021/04/29 12:38:14;;;;;;;17.23;14.68;;;6.90;99.90;;;;;;5051806;28;20089;-79